sensor_id;sensor_type;location;lat;lon;timestamp;pressure;altitude;pressure_sealevel;temperature;humidity
4012;BME280;2020;48.682;9.024;2024-03-17T00:01:32;97131.13;;;5.98;100.00
4012;BME280;2020;48.682;9.024;2024-03-17T00:03:57;97127.75;;;5.98;100.00
4012;BME280;2020;48.682;9.024;2024-03-17T00:06:24;97127.63;;;5.99;100.00
4012;BME280;2020;48.682;9.024;2024-03-17T00:08:49;97123.50;;;5.97;100.00
4012;BME280;2020;48.682;9.024;2024-03-17T00:11:15;97123.69;;;5.94;100.00
4012;BME280;2020;48.682;9.024;2024-03-17T00:13:40;97120.69;;;6.00;100.00
4012;BME280;2020;48.682;9.024;2024-03-17T00:16:06;97130.13;;;6.01;99.63
4012;BME280;2020;48.682;9.024;2024-03-17T00:18:32;97127.00;;;5.96;99.76
4012;BME280;2020;48.682;9.024;2024-03-17T00:20:57;97117.31;;;5.86;99.29
4012;BME280;2020;48.682;9.024;2024-03-17T00:23:22;97124.34;;;5.84;99.79
4012;BME280;2020;48.682;9.024;2024-03-17T00:25:47;97117.72;;;5.93;100.00
4012;BME280;2020;48.682;9.024;2024-03-17T00:28:13;97120.63;;;5.89;100.00
4012;BME280;2020;48.682;9.024;2024-03-17T00:30:38;97126.94;;;5.84;100.00
4012;BME280;2020;48.682;9.024;2024-03-17T00:33:03;97119.19;;;5.84;99.68
4012;BME280;2020;48.682;9.024;2024-03-17T00:35:29;97120.47;;;5.79;99.95
4012;BME280;2020;48.682;9.024;2024-03-17T00:37:55;97115.53;;;5.76;100.00
4012;BME280;2020;48.682;9.024;2024-03-17T00:40:21;97123.22;;;5.64;99.83
4012;BME280;2020;48.682;9.024;2024-03-17T00:42:46;97119.50;;;5.55;100.00
4012;BME280;2020;48.682;9.024;2024-03-17T00:45:12;97115.69;;;5.48;100.00
4012;BME280;2020;48.682;9.024;2024-03-17T00:47:38;97115.19;;;5.56;100.00
4012;BME280;2020;48.682;9.024;2024-03-17T00:50:04;97115.06;;;5.57;100.00
4012;BME280;2020;48.682;9.024;2024-03-17T00:52:32;97105.16;;;5.51;100.00
4012;BME280;2020;48.682;9.024;2024-03-17T00:54:57;97107.97;;;5.48;100.00
4012;BME280;2020;48.682;9.024;2024-03-17T00:57:22;97110.03;;;5.43;100.00
4012;BME280;2020;48.682;9.024;2024-03-17T00:59:48;97100.03;;;5.38;100.00
4012;BME280;2020;48.682;9.024;2024-03-17T01:02:15;97110.69;;;5.34;100.00
4012;BME280;2020;48.682;9.024;2024-03-17T01:04:42;97103.44;;;5.39;100.00
4012;BME280;2020;48.682;9.024;2024-03-17T01:07:08;97096.41;;;5.41;100.00
4012;BME280;2020;48.682;9.024;2024-03-17T01:09:34;97103.66;;;5.36;100.00
4012;BME280;2020;48.682;9.024;2024-03-17T01:12:00;97102.84;;;5.35;100.00
4012;BME280;2020;48.682;9.024;2024-03-17T01:14:25;97094.97;;;5.37;100.00
4012;BME280;2020;48.682;9.024;2024-03-17T01:16:51;97095.38;;;5.44;100.00
4012;BME280;2020;48.682;9.024;2024-03-17T01:19:16;97101.28;;;5.33;100.00
4012;BME280;2020;48.682;9.024;2024-03-17T01:21:41;97103.44;;;5.39;100.00
4012;BME280;2020;48.682;9.024;2024-03-17T01:24:07;97098.63;;;5.34;100.00
4012;BME280;2020;48.682;9.024;2024-03-17T01:26:32;97092.91;;;5.29;100.00
4012;BME280;2020;48.682;9.024;2024-03-17T01:28:58;97084.38;;;5.29;100.00
4012;BME280;2020;48.682;9.024;2024-03-17T01:31:23;97082.00;;;5.25;100.00
4012;BME280;2020;48.682;9.024;2024-03-17T01:33:48;97086.00;;;5.30;100.00
4012;BME280;2020;48.682;9.024;2024-03-17T01:36:13;97085.09;;;5.31;100.00
4012;BME280;2020;48.682;9.024;2024-03-17T01:38:39;97076.84;;;5.25;100.00
4012;BME280;2020;48.682;9.024;2024-03-17T01:41:04;97069.81;;;5.27;100.00
4012;BME280;2020;48.682;9.024;2024-03-17T01:43:30;97078.06;;;5.33;100.00
4012;BME280;2020;48.682;9.024;2024-03-17T01:45:55;97067.50;;;5.36;100.00
4012;BME280;2020;48.682;9.024;2024-03-17T01:48:21;97063.00;;;5.26;100.00
4012;BME280;2020;48.682;9.024;2024-03-17T01:50:49;97054.09;;;5.31;100.00
4012;BME280;2020;48.682;9.024;2024-03-17T01:53:16;97052.47;;;5.30;100.00
4012;BME280;2020;48.682;9.024;2024-03-17T01:55:43;97055.53;;;5.35;100.00
4012;BME280;2020;48.682;9.024;2024-03-17T01:58:09;97056.16;;;5.38;100.00
4012;BME280;2020;48.682;9.024;2024-03-17T02:00:39;97049.94;;;5.41;100.00
4012;BME280;2020;48.682;9.024;2024-03-17T02:03:08;97041.25;;;5.42;100.00
4012;BME280;2020;48.682;9.024;2024-03-17T02:05:36;97040.31;;;5.43;100.00
4012;BME280;2020;48.682;9.024;2024-03-17T02:08:06;97041.47;;;5.39;100.00
4012;BME280;2020;48.682;9.024;2024-03-17T02:10:32;97042.69;;;5.46;100.00
4012;BME280;2020;48.682;9.024;2024-03-17T02:12:58;97039.81;;;5.38;100.00
4012;BME280;2020;48.682;9.024;2024-03-17T02:15:24;97037.88;;;5.41;100.00
4012;BME280;2020;48.682;9.024;2024-03-17T02:17:49;97038.38;;;5.47;100.00
4012;BME280;2020;48.682;9.024;2024-03-17T02:20:15;97031.56;;;5.46;100.00
4012;BME280;2020;48.682;9.024;2024-03-17T02:22:40;97035.66;;;5.48;100.00
4012;BME280;2020;48.682;9.024;2024-03-17T02:25:05;97032.16;;;5.49;100.00
4012;BME280;2020;48.682;9.024;2024-03-17T02:27:37;97030.50;;;5.48;100.00
4012;BME280;2020;48.682;9.024;2024-03-17T02:30:03;97025.56;;;5.45;100.00
4012;BME280;2020;48.682;9.024;2024-03-17T02:32:32;97028.34;;;5.42;100.00
4012;BME280;2020;48.682;9.024;2024-03-17T02:34:58;97018.53;;;5.47;100.00
4012;BME280;2020;48.682;9.024;2024-03-17T02:37:24;97016.06;;;5.46;100.00
4012;BME280;2020;48.682;9.024;2024-03-17T02:39:50;97011.72;;;5.46;100.00
4012;BME280;2020;48.682;9.024;2024-03-17T02:42:15;97006.75;;;5.43;100.00
4012;BME280;2020;48.682;9.024;2024-03-17T02:44:40;97023.91;;;5.44;100.00
4012;BME280;2020;48.682;9.024;2024-03-17T02:47:06;97011.72;;;5.46;100.00
4012;BME280;2020;48.682;9.024;2024-03-17T02:49:34;97020.59;;;5.42;100.00
4012;BME280;2020;48.682;9.024;2024-03-17T02:52:07;97014.41;;;5.45;100.00
4012;BME280;2020;48.682;9.024;2024-03-17T02:54:36;97006.75;;;5.43;100.00
4012;BME280;2020;48.682;9.024;2024-03-17T02:57:05;97006.53;;;5.46;100.00
4012;BME280;2020;48.682;9.024;2024-03-17T02:59:32;97010.06;;;5.45;100.00
4012;BME280;2020;48.682;9.024;2024-03-17T03:01:58;97006.06;;;5.41;100.00
4012;BME280;2020;48.682;9.024;2024-03-17T03:04:24;97014.00;;;5.38;100.00
4012;BME280;2020;48.682;9.024;2024-03-17T03:06:50;97008.53;;;5.43;100.00
4012;BME280;2020;48.682;9.024;2024-03-17T03:09:15;97006.19;;;5.39;100.00
4012;BME280;2020;48.682;9.024;2024-03-17T03:11:46;97009.06;;;5.35;100.00
4012;BME280;2020;48.682;9.024;2024-03-17T03:14:12;97016.00;;;5.34;100.00
4012;BME280;2020;48.682;9.024;2024-03-17T03:16:37;97006.97;;;5.40;100.00
4012;BME280;2020;48.682;9.024;2024-03-17T03:19:03;97015.66;;;5.39;100.00
4012;BME280;2020;48.682;9.024;2024-03-17T03:21:30;97013.78;;;5.41;100.00
4012;BME280;2020;48.682;9.024;2024-03-17T03:23:55;97006.97;;;5.40;100.00
4012;BME280;2020;48.682;9.024;2024-03-17T03:26:21;96999.59;;;5.35;100.00
4012;BME280;2020;48.682;9.024;2024-03-17T03:28:46;96998.31;;;5.41;100.00
4012;BME280;2020;48.682;9.024;2024-03-17T03:31:11;97004.84;;;5.34;100.00
4012;BME280;2020;48.682;9.024;2024-03-17T03:33:40;97007.41;;;5.34;100.00
4012;BME280;2020;48.682;9.024;2024-03-17T03:36:13;97009.06;;;5.35;100.00
4012;BME280;2020;48.682;9.024;2024-03-17T03:38:39;97005.56;;;5.36;100.00
4012;BME280;2020;48.682;9.024;2024-03-17T03:41:14;96998.88;;;5.33;100.00
4012;BME280;2020;48.682;9.024;2024-03-17T03:43:39;96995.44;;;5.33;100.00
4012;BME280;2020;48.682;9.024;2024-03-17T03:46:06;97004.13;;;5.32;100.00
4012;BME280;2020;48.682;9.024;2024-03-17T03:48:31;96994.81;;;5.29;100.00
4012;BME280;2020;48.682;9.024;2024-03-17T03:50:57;97002.47;;;5.31;100.00
4012;BME280;2020;48.682;9.024;2024-03-17T03:53:22;97000.84;;;5.30;100.00
4012;BME280;2020;48.682;9.024;2024-03-17T03:55:48;97000.13;;;5.27;100.00
4012;BME280;2020;48.682;9.024;2024-03-17T03:58:14;97004.34;;;5.29;100.00
4012;BME280;2020;48.682;9.024;2024-03-17T04:00:39;96995.66;;;5.30;100.00
4012;BME280;2020;48.682;9.024;2024-03-17T04:03:05;96996.09;;;5.23;100.00
4012;BME280;2020;48.682;9.024;2024-03-17T04:05:30;96992.81;;;5.21;100.00
4012;BME280;2020;48.682;9.024;2024-03-17T04:07:56;96989.50;;;5.19;100.00
4012;BME280;2020;48.682;9.024;2024-03-17T04:10:21;96997.56;;;5.15;100.00
4012;BME280;2020;48.682;9.024;2024-03-17T04:12:47;96995.25;;;5.23;100.00
4012;BME280;2020;48.682;9.024;2024-03-17T04:15:12;96993.03;;;5.18;100.00
4012;BME280;2020;48.682;9.024;2024-03-17T04:17:39;96996.19;;;5.22;100.00
4012;BME280;2020;48.682;9.024;2024-03-17T04:20:05;97005.00;;;5.19;100.00
4012;BME280;2020;48.682;9.024;2024-03-17T04:22:33;97001.84;;;5.27;100.00
4012;BME280;2020;48.682;9.024;2024-03-17T04:24:58;96997.75;;;5.24;100.00
4012;BME280;2020;48.682;9.024;2024-03-17T04:27:24;96999.41;;;5.25;100.00
4012;BME280;2020;48.682;9.024;2024-03-17T04:29:51;96989.50;;;5.19;100.00
4012;BME280;2020;48.682;9.024;2024-03-17T04:32:16;96993.63;;;5.22;100.00
4012;BME280;2020;48.682;9.024;2024-03-17T04:34:42;96996.31;;;5.20;100.00
4012;BME280;2020;48.682;9.024;2024-03-17T04:37:10;96993.47;;;5.12;100.00
4012;BME280;2020;48.682;9.024;2024-03-17T04:39:42;96986.88;;;5.08;100.00
4012;BME280;2020;48.682;9.024;2024-03-17T04:42:12;96989.66;;;5.05;100.00
4012;BME280;2020;48.682;9.024;2024-03-17T04:44:39;96993.34;;;5.13;100.00
4012;BME280;2020;48.682;9.024;2024-03-17T04:47:05;96993.25;;;5.15;100.00
4012;BME280;2020;48.682;9.024;2024-03-17T04:49:34;96995.31;;;5.10;100.00
4012;BME280;2020;48.682;9.024;2024-03-17T04:52:00;96991.31;;;5.06;100.00
4012;BME280;2020;48.682;9.024;2024-03-17T04:54:25;96991.09;;;5.09;100.00
4012;BME280;2020;48.682;9.024;2024-03-17T04:56:50;96995.53;;;5.07;100.00
4012;BME280;2020;48.682;9.024;2024-03-17T04:59:15;97003.78;;;5.12;100.00
4012;BME280;2020;48.682;9.024;2024-03-17T05:01:41;96998.84;;;5.09;100.00
4012;BME280;2020;48.682;9.024;2024-03-17T05:04:07;96998.34;;;5.04;100.00
4012;BME280;2020;48.682;9.024;2024-03-17T05:06:32;96996.25;;;5.09;100.00
4012;BME280;2020;48.682;9.024;2024-03-17T05:08:57;96999.06;;;5.06;100.00
4012;BME280;2020;48.682;9.024;2024-03-17T05:11:23;96992.69;;;4.98;100.00
4012;BME280;2020;48.682;9.024;2024-03-17T05:13:49;96993.69;;;4.96;100.00
4012;BME280;2020;48.682;9.024;2024-03-17T05:16:14;96994.41;;;4.98;100.00
4012;BME280;2020;48.682;9.024;2024-03-17T05:18:40;97002.78;;;5.02;100.00
4012;BME280;2020;48.682;9.024;2024-03-17T05:21:06;97002.56;;;5.05;100.00
4012;BME280;2020;48.682;9.024;2024-03-17T05:23:33;96999.66;;;5.09;100.00
4012;BME280;2020;48.682;9.024;2024-03-17T05:26:00;96996.25;;;5.09;100.00
4012;BME280;2020;48.682;9.024;2024-03-17T05:28:26;96994.69;;;5.06;100.00
4012;BME280;2020;48.682;9.024;2024-03-17T05:30:52;96995.03;;;5.02;100.00
4012;BME280;2020;48.682;9.024;2024-03-17T05:33:19;96990.19;;;4.97;100.00
4012;BME280;2020;48.682;9.024;2024-03-17T05:38:18;96988.16;;;4.89;100.00
4012;BME280;2020;48.682;9.024;2024-03-17T05:40:44;96990.84;;;4.88;100.00
4012;BME280;2020;48.682;9.024;2024-03-17T05:43:09;96989.81;;;4.90;100.00
4012;BME280;2020;48.682;9.024;2024-03-17T05:45:35;96991.47;;;4.91;100.00
4012;BME280;2020;48.682;9.024;2024-03-17T05:48:00;96994.97;;;4.90;100.00
4012;BME280;2020;48.682;9.024;2024-03-17T05:50:30;96997.44;;;4.92;100.00
4012;BME280;2020;48.682;9.024;2024-03-17T05:52:55;96998.25;;;4.92;100.00
4012;BME280;2020;48.682;9.024;2024-03-17T05:55:20;96996.63;;;4.91;100.00
4012;BME280;2020;48.682;9.024;2024-03-17T05:57:46;96996.63;;;4.91;100.00
4012;BME280;2020;48.682;9.024;2024-03-17T06:00:11;96988.59;;;4.83;100.00
4012;BME280;2020;48.682;9.024;2024-03-17T06:02:40;96986.44;;;4.77;100.00
4012;BME280;2020;48.682;9.024;2024-03-17T06:05:05;97000.56;;;4.84;100.00
4012;BME280;2020;48.682;9.024;2024-03-17T06:07:35;96990.75;;;4.89;100.00
4012;BME280;2020;48.682;9.024;2024-03-17T06:10:00;96989.16;;;5.00;100.00
4012;BME280;2020;48.682;9.024;2024-03-17T06:12:25;96993.00;;;5.91;100.00
4012;BME280;2020;48.682;9.024;2024-03-17T06:14:51;96986.94;;;5.79;100.00
4012;BME280;2020;48.682;9.024;2024-03-17T06:17:16;96995.78;;;5.52;100.00
4012;BME280;2020;48.682;9.024;2024-03-17T06:19:41;96987.97;;;5.41;100.00
4012;BME280;2020;48.682;9.024;2024-03-17T06:22:06;96990.91;;;5.36;100.00
4012;BME280;2020;48.682;9.024;2024-03-17T06:24:32;96994.50;;;5.34;100.00
4012;BME280;2020;48.682;9.024;2024-03-17T06:26:57;96994.72;;;5.31;100.00
4012;BME280;2020;48.682;9.024;2024-03-17T06:29:22;96993.59;;;5.35;100.00
4012;BME280;2020;48.682;9.024;2024-03-17T06:31:47;96984.91;;;5.36;100.00
4012;BME280;2020;48.682;9.024;2024-03-17T06:34:14;96990.16;;;5.59;100.00
4012;BME280;2020;48.682;9.024;2024-03-17T06:36:41;96988.28;;;5.61;100.00
4012;BME280;2020;48.682;9.024;2024-03-17T06:39:07;96990.22;;;5.70;100.00
4012;BME280;2020;48.682;9.024;2024-03-17T06:41:32;97001.00;;;6.47;100.00
4012;BME280;2020;48.682;9.024;2024-03-17T06:43:57;96992.84;;;7.85;96.60
4012;BME280;2020;48.682;9.024;2024-03-17T06:46:24;96992.66;;;7.98;94.46
4012;BME280;2020;48.682;9.024;2024-03-17T06:48:49;96988.88;;;8.02;94.02
4012;BME280;2020;48.682;9.024;2024-03-17T06:51:16;96985.81;;;7.54;94.83
4012;BME280;2020;48.682;9.024;2024-03-17T06:53:41;96992.94;;;7.29;97.21
4012;BME280;2020;48.682;9.024;2024-03-17T06:56:07;96988.91;;;7.37;99.13
4012;BME280;2020;48.682;9.024;2024-03-17T06:58:32;96989.16;;;7.34;100.00
4012;BME280;2020;48.682;9.024;2024-03-17T07:01:00;96987.03;;;7.39;100.00
4012;BME280;2020;48.682;9.024;2024-03-17T07:03:30;96984.31;;;7.40;100.00
4012;BME280;2020;48.682;9.024;2024-03-17T07:05:57;96989.13;;;7.45;100.00
4012;BME280;2020;48.682;9.024;2024-03-17T07:08:23;96988.47;;;7.31;100.00
4012;BME280;2020;48.682;9.024;2024-03-17T07:11:00;96987.28;;;7.24;100.00
4012;BME280;2020;48.682;9.024;2024-03-17T07:13:29;96987.31;;;7.13;100.00
4012;BME280;2020;48.682;9.024;2024-03-17T07:15:55;96989.69;;;7.05;100.00
4012;BME280;2020;48.682;9.024;2024-03-17T07:18:20;96991.81;;;6.99;100.00
4012;BME280;2020;48.682;9.024;2024-03-17T07:20:45;96983.34;;;6.97;100.00
4012;BME280;2020;48.682;9.024;2024-03-17T07:23:15;96984.75;;;7.01;100.00
4012;BME280;2020;48.682;9.024;2024-03-17T07:25:41;96982.34;;;7.32;100.00
4012;BME280;2020;48.682;9.024;2024-03-17T07:28:08;96987.72;;;7.41;100.00
4012;BME280;2020;48.682;9.024;2024-03-17T07:30:33;96982.09;;;7.36;100.00
4012;BME280;2020;48.682;9.024;2024-03-17T07:32:58;96978.06;;;7.43;100.00
4012;BME280;2020;48.682;9.024;2024-03-17T07:35:24;96973.53;;;7.56;100.00
4012;BME280;2020;48.682;9.024;2024-03-17T07:37:49;96983.31;;;7.85;100.00
4012;BME280;2020;48.682;9.024;2024-03-17T07:40:14;96972.56;;;8.11;100.00
4012;BME280;2020;48.682;9.024;2024-03-17T07:42:40;96976.59;;;7.83;100.00
4012;BME280;2020;48.682;9.024;2024-03-17T07:45:07;96979.06;;;7.84;100.00
4012;BME280;2020;48.682;9.024;2024-03-17T07:47:33;96980.91;;;7.94;100.00
4012;BME280;2020;48.682;9.024;2024-03-17T07:50:04;96977.38;;;7.95;100.00
4012;BME280;2020;48.682;9.024;2024-03-17T07:52:31;96975.41;;;8.08;100.00
4012;BME280;2020;48.682;9.024;2024-03-17T07:54:57;96981.53;;;8.07;100.00
4012;BME280;2020;48.682;9.024;2024-03-17T07:57:22;96978.75;;;7.99;100.00
4012;BME280;2020;48.682;9.024;2024-03-17T07:59:50;96980.22;;;7.92;100.00
4012;BME280;2020;48.682;9.024;2024-03-17T08:02:18;96979.78;;;7.86;99.70
4012;BME280;2020;48.682;9.024;2024-03-17T08:04:44;96985.19;;;7.83;100.00
4012;BME280;2020;48.682;9.024;2024-03-17T08:07:12;96987.41;;;7.88;100.00
4012;BME280;2020;48.682;9.024;2024-03-17T08:09:37;96980.81;;;7.84;100.00
4012;BME280;2020;48.682;9.024;2024-03-17T08:12:02;96979.25;;;7.93;100.00
4012;BME280;2020;48.682;9.024;2024-03-17T08:14:32;96983.50;;;7.94;100.00
4012;BME280;2020;48.682;9.024;2024-03-17T08:16:57;96984.28;;;8.05;100.00
4012;BME280;2020;48.682;9.024;2024-03-17T08:19:22;96974.59;;;8.08;100.00
4012;BME280;2020;48.682;9.024;2024-03-17T08:21:47;96970.41;;;8.16;99.84
4012;BME280;2020;48.682;9.024;2024-03-17T08:24:13;96970.75;;;8.33;98.89
4012;BME280;2020;48.682;9.024;2024-03-17T08:26:38;96973.78;;;8.38;98.35
4012;BME280;2020;48.682;9.024;2024-03-17T08:29:05;96966.69;;;8.40;99.71
4012;BME280;2020;48.682;9.024;2024-03-17T08:31:30;96966.88;;;8.48;99.80
4012;BME280;2020;48.682;9.024;2024-03-17T08:33:56;96969.88;;;8.65;99.91
4012;BME280;2020;48.682;9.024;2024-03-17T08:36:21;96975.34;;;8.72;96.04
4012;BME280;2020;48.682;9.024;2024-03-17T08:38:46;96965.28;;;8.78;92.51
4012;BME280;2020;48.682;9.024;2024-03-17T08:41:13;96960.41;;;8.95;94.00
4012;BME280;2020;48.682;9.024;2024-03-17T08:43:39;96968.34;;;9.03;92.56
4012;BME280;2020;48.682;9.024;2024-03-17T08:46:10;96957.25;;;9.11;91.79
4012;BME280;2020;48.682;9.024;2024-03-17T08:48:37;96954.44;;;9.24;90.61
4012;BME280;2020;48.682;9.024;2024-03-17T08:51:04;96959.09;;;9.50;92.66
4012;BME280;2020;48.682;9.024;2024-03-17T08:53:30;96954.44;;;9.63;90.07
4012;BME280;2020;48.682;9.024;2024-03-17T08:55:56;96951.00;;;9.73;87.51
4012;BME280;2020;48.682;9.024;2024-03-17T08:58:23;96947.88;;;9.89;91.31
4012;BME280;2020;48.682;9.024;2024-03-17T09:00:48;96945.66;;;9.84;86.81
4012;BME280;2020;48.682;9.024;2024-03-17T09:03:13;96943.63;;;9.78;84.31
4012;BME280;2020;48.682;9.024;2024-03-17T09:05:40;96946.78;;;9.72;74.80
4012;BME280;2020;48.682;9.024;2024-03-17T09:08:07;96947.88;;;9.69;72.68
4012;BME280;2020;48.682;9.024;2024-03-17T09:10:41;96948.41;;;9.73;73.12
4012;BME280;2020;48.682;9.024;2024-03-17T09:13:08;96948.13;;;9.76;66.35
4012;BME280;2020;48.682;9.024;2024-03-17T09:15:38;96950.19;;;9.82;67.83
4012;BME280;2020;48.682;9.024;2024-03-17T09:18:03;96948.13;;;9.76;68.33
4012;BME280;2020;48.682;9.024;2024-03-17T09:20:28;96944.72;;;9.75;67.46
4012;BME280;2020;48.682;9.024;2024-03-17T09:22:54;96945.66;;;9.84;68.58
4012;BME280;2020;48.682;9.024;2024-03-17T09:25:19;96944.31;;;9.90;68.40
4012;BME280;2020;48.682;9.024;2024-03-17T09:27:44;96948.38;;;9.92;67.26
4012;BME280;2020;48.682;9.024;2024-03-17T09:30:10;96947.03;;;9.88;68.54
4012;BME280;2020;48.682;9.024;2024-03-17T09:32:36;96937.03;;;9.93;69.08
4012;BME280;2020;48.682;9.024;2024-03-17T09:35:02;96940.75;;;10.01;68.23
4012;BME280;2020;48.682;9.024;2024-03-17T09:37:28;96942.09;;;9.95;66.07
4012;BME280;2020;48.682;9.024;2024-03-17T09:39:56;96935.25;;;9.84;65.88
4012;BME280;2020;48.682;9.024;2024-03-17T09:42:22;96936.91;;;9.85;66.71
4012;BME280;2020;48.682;9.024;2024-03-17T09:44:49;96946.09;;;9.79;65.82
4012;BME280;2020;48.682;9.024;2024-03-17T09:47:19;96940.47;;;9.84;68.03
4012;BME280;2020;48.682;9.024;2024-03-17T09:49:48;96938.81;;;9.83;66.01
4012;BME280;2020;48.682;9.024;2024-03-17T09:52:24;96941.03;;;9.78;67.21
4012;BME280;2020;48.682;9.024;2024-03-17T09:55:16;96946.63;;;9.83;66.00
4012;BME280;2020;48.682;9.024;2024-03-17T09:57:43;96942.94;;;9.95;66.93
4012;BME280;2020;48.682;9.024;2024-03-17T10:00:11;96950.41;;;10.08;68.93
4012;BME280;2020;48.682;9.024;2024-03-17T10:02:44;96939.03;;;10.19;71.66
4012;BME280;2020;48.682;9.024;2024-03-17T10:05:23;96937.91;;;10.32;67.54
4012;BME280;2020;48.682;9.024;2024-03-17T10:07:50;96929.72;;;10.27;68.25
4012;BME280;2020;48.682;9.024;2024-03-17T10:10:16;96932.38;;;10.55;69.70
4012;BME280;2020;48.682;9.024;2024-03-17T10:12:43;96925.63;;;10.90;70.74
4012;BME280;2020;48.682;9.024;2024-03-17T10:15:10;96929.94;;;10.99;70.56
4012;BME280;2020;48.682;9.024;2024-03-17T10:17:37;96925.66;;;11.26;70.80
4012;BME280;2020;48.682;9.024;2024-03-17T10:20:16;96925.91;;;11.51;69.60
4012;BME280;2020;48.682;9.024;2024-03-17T10:25:23;96918.88;;;11.15;65.71
4012;BME280;2020;48.682;9.024;2024-03-17T10:27:49;96926.97;;;10.94;66.28
4012;BME280;2020;48.682;9.024;2024-03-17T10:30:18;96922.22;;;11.07;71.68
4012;BME280;2020;48.682;9.024;2024-03-17T10:32:45;96930.31;;;11.32;71.28
4012;BME280;2020;48.682;9.024;2024-03-17T10:37:57;96932.53;;;11.27;69.46
4012;BME280;2020;48.682;9.024;2024-03-17T10:40:24;96927.91;;;11.39;72.73
4012;BME280;2020;48.682;9.024;2024-03-17T10:42:50;96931.03;;;11.43;71.08
4012;BME280;2020;48.682;9.024;2024-03-17T10:45:15;96934.38;;;11.35;74.29
4012;BME280;2020;48.682;9.024;2024-03-17T10:47:43;96932.25;;;11.30;69.74
4012;BME280;2020;48.682;9.024;2024-03-17T10:50:16;96937.06;;;11.43;72.58
4012;BME280;2020;48.682;9.024;2024-03-17T10:52:45;96945.41;;;11.29;66.38
4012;BME280;2020;48.682;9.024;2024-03-17T10:55:26;96927.88;;;11.21;68.62
4012;BME280;2020;48.682;9.024;2024-03-17T10:57:52;96938.31;;;11.39;72.76
4012;BME280;2020;48.682;9.024;2024-03-17T11:00:20;96944.59;;;11.46;70.28
4012;BME280;2020;48.682;9.024;2024-03-17T11:02:48;96937.91;;;11.44;69.09
4012;BME280;2020;48.682;9.024;2024-03-17T11:05:15;96931.66;;;11.36;67.63
4012;BME280;2020;48.682;9.024;2024-03-17T11:07:43;96923.66;;;11.38;69.67
4012;BME280;2020;48.682;9.024;2024-03-17T11:10:16;96917.03;;;11.44;69.88
4012;BME280;2020;48.682;9.024;2024-03-17T11:12:43;96921.34;;;11.53;67.99
4012;BME280;2020;48.682;9.024;2024-03-17T11:17:43;96916.81;;;11.55;65.55
4012;BME280;2020;48.682;9.024;2024-03-17T11:20:21;96916.56;;;11.66;63.01
4012;BME280;2020;48.682;9.024;2024-03-17T11:22:49;96911.63;;;11.81;63.36
4012;BME280;2020;48.682;9.024;2024-03-17T11:27:58;96909.41;;;11.68;63.48
4012;BME280;2020;48.682;9.024;2024-03-17T11:41:40;96897.78;;;12.34;65.19
4012;BME280;2020;48.682;9.024;2024-03-17T11:46:53;96893.38;;;12.34;65.17
4012;BME280;2020;48.682;9.024;2024-03-17T11:51:46;96890.22;;;12.22;66.70
4012;BME280;2020;48.682;9.024;2024-03-17T11:54:17;96898.72;;;12.24;66.99
4012;BME280;2020;48.682;9.024;2024-03-17T11:56:45;96894.16;;;12.26;66.41
4012;BME280;2020;48.682;9.024;2024-03-17T11:59:10;96889.41;;;12.22;67.71
4012;BME280;2020;48.682;9.024;2024-03-17T12:01:36;96888.31;;;12.33;67.16
4012;BME280;2020;48.682;9.024;2024-03-17T12:04:03;96887.34;;;12.34;65.11
4012;BME280;2020;48.682;9.024;2024-03-17T12:06:31;96882.44;;;12.31;64.67
4012;BME280;2020;48.682;9.024;2024-03-17T12:09:51;96885.31;;;12.19;61.63
4012;BME280;2020;48.682;9.024;2024-03-17T12:14:39;96875.69;;;12.20;65.66
4012;BME280;2020;48.682;9.024;2024-03-17T12:17:07;96874.78;;;12.03;63.34
4012;BME280;2020;48.682;9.024;2024-03-17T12:19:34;96876.63;;;12.10;65.74
4012;BME280;2020;48.682;9.024;2024-03-17T12:22:00;96874.25;;;11.99;63.35
4012;BME280;2020;48.682;9.024;2024-03-17T12:24:27;96876.13;;;12.07;66.45
4012;BME280;2020;48.682;9.024;2024-03-17T12:26:54;96872.63;;;11.98;64.08
4012;BME280;2020;48.682;9.024;2024-03-17T12:31:58;96869.91;;;12.08;64.64
4012;BME280;2020;48.682;9.024;2024-03-17T12:34:26;96863.41;;;12.12;64.95
4012;BME280;2020;48.682;9.024;2024-03-17T12:36:53;96860.03;;;12.20;65.21
4012;BME280;2020;48.682;9.024;2024-03-17T12:39:44;96865.75;;;12.23;66.31
4012;BME280;2020;48.682;9.024;2024-03-17T12:42:09;96861.13;;;12.09;64.31
4012;BME280;2020;48.682;9.024;2024-03-17T12:44:37;96853.50;;;11.89;62.99
4012;BME280;2020;48.682;9.024;2024-03-17T12:47:07;96846.00;;;11.94;64.20
4012;BME280;2020;48.682;9.024;2024-03-17T12:49:33;96842.13;;;11.98;63.00
4012;BME280;2020;48.682;9.024;2024-03-17T12:52:02;96847.34;;;11.98;62.76
4012;BME280;2020;48.682;9.024;2024-03-17T12:54:28;96836.84;;;12.08;63.58
4012;BME280;2020;48.682;9.024;2024-03-17T12:57:08;96838.16;;;12.12;64.11
4012;BME280;2020;48.682;9.024;2024-03-17T12:59:52;96838.81;;;12.14;64.81
4012;BME280;2020;48.682;9.024;2024-03-17T13:02:42;96833.31;;;12.26;63.45
4012;BME280;2020;48.682;9.024;2024-03-17T13:05:17;96831.22;;;12.38;64.85
4012;BME280;2020;48.682;9.024;2024-03-17T13:07:46;96822.47;;;12.55;65.85
4012;BME280;2020;48.682;9.024;2024-03-17T13:10:15;96823.78;;;12.51;67.15
4012;BME280;2020;48.682;9.024;2024-03-17T13:12:41;96819.34;;;12.43;63.29
4012;BME280;2020;48.682;9.024;2024-03-17T13:15:09;96826.16;;;12.28;63.87
4012;BME280;2020;48.682;9.024;2024-03-17T13:17:35;96819.41;;;12.17;66.08
4012;BME280;2020;48.682;9.024;2024-03-17T13:20:00;96820.03;;;12.11;62.64
4012;BME280;2020;48.682;9.024;2024-03-17T13:22:26;96809.81;;;12.18;64.69
4012;BME280;2020;48.682;9.024;2024-03-17T13:24:51;96820.94;;;12.28;65.23
4012;BME280;2020;48.682;9.024;2024-03-17T13:27:17;96815.25;;;12.41;66.33
4012;BME280;2020;48.682;9.024;2024-03-17T13:29:47;96816.56;;;12.45;65.27
4012;BME280;2020;48.682;9.024;2024-03-17T13:32:12;96815.91;;;12.43;66.67
4012;BME280;2020;48.682;9.024;2024-03-17T13:34:37;96816.88;;;12.42;66.17
4012;BME280;2020;48.682;9.024;2024-03-17T13:37:03;96816.25;;;12.48;67.62
4012;BME280;2020;48.682;9.024;2024-03-17T13:39:32;96815.59;;;12.46;64.78
4012;BME280;2020;48.682;9.024;2024-03-17T13:41:59;96803.53;;;12.53;65.16
4012;BME280;2020;48.682;9.024;2024-03-17T13:44:31;96802.28;;;12.66;64.72
4012;BME280;2020;48.682;9.024;2024-03-17T13:46:57;96800.97;;;12.62;63.84
4012;BME280;2020;48.682;9.024;2024-03-17T13:49:23;96782.06;;;12.76;63.00
4012;BME280;2020;48.682;9.024;2024-03-17T13:51:48;96788.09;;;12.93;63.27
4012;BME280;2020;48.682;9.024;2024-03-17T13:54:14;96787.97;;;12.95;64.90
4012;BME280;2020;48.682;9.024;2024-03-17T13:56:40;96792.22;;;12.96;62.08
4012;BME280;2020;48.682;9.024;2024-03-17T13:59:05;96786.63;;;12.66;57.84